Time;durP1;ratioP1;P1;durP2;ratioP2;P2;SDS_P1;SDS_P2;PMS_P1;PMS_P2;Temp;Humidity;BMP_temperature;BMP_pressure;BME280_temperature;BME280_humidity;BME280_pressure;Samples;Min_cycle;Max_cycle;Signal;HPM_P1;HPM_P2
2023/08/19 00:00:56;;;;;;;7.60;7.00;;;;;;;;;;5076262;28;20356;-21
2023/08/19 00:03:22;;;;;;;8.93;8.15;;;;;;;;;;5075873;28;20044;-23
2023/08/19 00:05:49;;;;;;;8.20;7.60;;;;;;;;;;5075902;28;20064;-23
2023/08/19 00:08:15;;;;;;;8.63;7.80;;;;;;;;;;5075810;28;20028;-22
2023/08/19 00:10:41;;;;;;;9.43;8.63;;;;;;;;;;5076041;28;20456;-22
2023/08/19 00:13:08;;;;;;;8.90;8.30;;;;;;;;;;5057981;28;20044;-22
2023/08/19 00:15:34;;;;;;;8.63;7.63;;;;;;;;;;5075148;28;20056;-21
2023/08/19 00:18:01;;;;;;;8.88;8.15;;;;;;;;;;5075905;28;20356;-26
2023/08/19 00:20:30;;;;;;;8.82;8.13;;;;;;;;;;5075840;28;20058;-20
2023/08/19 00:22:56;;;;;;;9.43;8.68;;;;;;;;;;5075447;28;20059;-22
2023/08/19 00:25:26;;;;;;;7.25;6.75;;;;;;;;;;5057961;28;20422;-25
2023/08/19 00:27:53;;;;;;;8.43;7.82;;;;;;;;;;5075743;28;20475;-21
2023/08/19 00:30:19;;;;;;;7.28;6.78;;;;;;;;;;5057794;28;20329;-23
2023/08/19 00:32:46;;;;;;;8.00;7.40;;;;;;;;;;5075279;28;20028;-22
2023/08/19 00:35:13;;;;;;;8.93;8.20;;;;;;;;;;5075237;28;20024;-22
2023/08/19 00:37:39;;;;;;;7.78;7.28;;;;;;;;;;5075847;28;20371;-22
2023/08/19 00:40:06;;;;;;;7.82;7.22;;;;;;;;;;5075199;28;20016;-23
2023/08/19 00:42:32;;;;;;;7.82;7.32;;;;;;;;;;5075161;28;20039;-21
2023/08/19 00:44:58;;;;;;;7.82;7.32;;;;;;;;;;5075118;28;20363;-22
2023/08/19 00:47:25;;;;;;;8.57;7.97;;;;;;;;;;5075103;28;20028;-22
2023/08/19 00:49:51;;;;;;;7.68;7.18;;;;;;;;;;5075057;28;20024;-20
2023/08/19 00:52:18;;;;;;;8.18;7.68;;;;;;;;;;5074927;28;20093;-23
2023/08/19 00:54:45;;;;;;;8.13;7.45;;;;;;;;;;5074907;28;20020;-25
2023/08/19 00:57:12;;;;;;;7.03;6.53;;;;;;;;;;5074963;28;20021;-24
2023/08/19 00:59:38;;;;;;;7.35;6.85;;;;;;;;;;5074955;28;20095;-20
2023/08/19 01:02:04;;;;;;;8.15;7.50;;;;;;;;;;5074809;28;20025;-22
2023/08/19 01:04:31;;;;;;;7.80;7.20;;;;;;;;;;5074673;28;20170;-21
2023/08/19 01:07:04;;;;;;;7.75;7.00;;;;;;;;;;5075078;28;20409;-19
2023/08/19 01:09:42;;;;;;;7.38;6.88;;;;;;;;;;5074825;28;20024;-25
2023/08/19 01:12:23;;;;;;;7.72;7.22;;;;;;;;;;5075049;28;20038;-22
2023/08/19 01:15:13;;;;;;;9.00;8.30;;;;;;;;;;5057003;28;20040;-25
2023/08/19 01:17:40;;;;;;;8.73;8.05;;;;;;;;;;5064358;28;20044;-21
2023/08/19 01:20:11;;;;;;;7.55;6.95;;;;;;;;;;5057568;28;20031;-22
2023/08/19 01:22:41;;;;;;;7.53;7.03;;;;;;;;;;5074878;28;20021;-21
2023/08/19 01:25:07;;;;;;;8.40;7.80;;;;;;;;;;5074881;28;20094;-25
2023/08/19 01:27:33;;;;;;;8.77;8.02;;;;;;;;;;5073701;28;20121;-23
2023/08/19 01:29:59;;;;;;;7.60;7.00;;;;;;;;;;5074866;28;20028;-23
2023/08/19 01:32:26;;;;;;;7.78;7.28;;;;;;;;;;5074399;28;20052;-23
2023/08/19 01:34:53;;;;;;;6.88;6.47;;;;;;;;;;5074756;28;20028;-24
2023/08/19 01:37:27;;;;;;;6.88;6.35;;;;;;;;;;5056772;28;20104;-23
2023/08/19 01:39:55;;;;;;;7.75;7.25;;;;;;;;;;5074503;28;20109;-25
2023/08/19 01:42:22;;;;;;;7.93;7.43;;;;;;;;;;5056728;28;20025;-28
2023/08/19 01:44:48;;;;;;;7.43;6.93;;;;;;;;;;5074698;28;20020;-25
2023/08/19 01:47:18;;;;;;;7.65;6.95;;;;;;;;;;5074968;28;20490;-25
2023/08/19 01:49:44;;;;;;;7.32;6.85;;;;;;;;;;5074632;28;20032;-22
2023/08/19 01:52:12;;;;;;;7.55;7.15;;;;;;;;;;5074556;28;20035;-20
2023/08/19 01:54:38;;;;;;;6.85;6.38;;;;;;;;;;5074519;28;20025;-23
2023/08/19 01:57:04;;;;;;;7.20;6.70;;;;;;;;;;5074301;28;20333;-19
2023/08/19 01:59:30;;;;;;;7.65;7.15;;;;;;;;;;5056623;28;20031;-21
2023/08/19 02:01:56;;;;;;;7.38;6.88;;;;;;;;;;5074459;28;20404;-23
2023/08/19 02:04:22;;;;;;;7.50;7.00;;;;;;;;;;5074182;28;20045;-24
2023/08/19 02:06:48;;;;;;;7.05;6.63;;;;;;;;;;5074476;28;20047;-26
2023/08/19 02:09:15;;;;;;;7.85;7.25;;;;;;;;;;5074123;28;20027;-25
2023/08/19 02:11:41;;;;;;;8.00;7.38;;;;;;;;;;5074175;28;20021;-22
2023/08/19 02:14:08;;;;;;;7.72;7.03;;;;;;;;;;5073968;28;20033;-23
2023/08/19 02:16:34;;;;;;;8.30;7.70;;;;;;;;;;5074326;28;20344;-21
2023/08/19 02:19:01;;;;;;;8.00;7.43;;;;;;;;;;5074377;28;20035;-21
2023/08/19 02:21:27;;;;;;;7.35;6.75;;;;;;;;;;5074097;28;20024;-21
2023/08/19 02:23:53;;;;;;;7.47;6.97;;;;;;;;;;5073963;28;20033;-20
2023/08/19 02:26:20;;;;;;;7.03;6.63;;;;;;;;;;5074264;28;20024;-19
2023/08/19 02:28:46;;;;;;;7.30;6.70;;;;;;;;;;5073995;28;20099;-23
2023/08/19 02:31:12;;;;;;;7.72;7.13;;;;;;;;;;5073948;28;20021;-22
2023/08/19 02:33:40;;;;;;;7.75;7.20;;;;;;;;;;5073838;28;20024;-23
2023/08/19 02:36:06;;;;;;;7.35;6.93;;;;;;;;;;5073857;28;20027;-25
2023/08/19 02:38:32;;;;;;;7.47;6.97;;;;;;;;;;5074804;28;20043;-24
2023/08/19 02:40:59;;;;;;;7.35;6.85;;;;;;;;;;5077453;28;20017;-26
2023/08/19 02:43:25;;;;;;;7.68;7.07;;;;;;;;;;5077399;28;20043;-23
2023/08/19 02:45:53;;;;;;;7.53;7.03;;;;;;;;;;5077693;28;20020;-20
2023/08/19 02:48:19;;;;;;;7.35;6.85;;;;;;;;;;5077688;28;20035;-25
2023/08/19 02:50:45;;;;;;;8.05;7.55;;;;;;;;;;5077625;28;20044;-25
2023/08/19 02:53:11;;;;;;;7.38;6.88;;;;;;;;;;5077175;28;20017;-25
2023/08/19 02:55:42;;;;;;;7.70;6.97;;;;;;;;;;5077179;28;20095;-23
2023/08/19 02:58:08;;;;;;;7.72;7.22;;;;;;;;;;5077225;28;20020;-24
2023/08/19 03:00:36;;;;;;;7.10;6.60;;;;;;;;;;5077208;28;20031;-23
2023/08/19 03:03:02;;;;;;;8.43;7.82;;;;;;;;;;5077326;28;20035;-26
2023/08/19 03:05:28;;;;;;;7.53;6.95;;;;;;;;;;5076006;28;20068;-25
2023/08/19 03:07:54;;;;;;;7.70;7.10;;;;;;;;;;5075867;28;20108;-23
2023/08/19 03:10:20;;;;;;;7.05;6.55;;;;;;;;;;5076188;28;20108;-26
2023/08/19 03:12:46;;;;;;;7.15;6.65;;;;;;;;;;5076025;28;20035;-23
2023/08/19 03:15:12;;;;;;;7.10;6.60;;;;;;;;;;5058550;28;20047;-22
2023/08/19 03:17:39;;;;;;;7.70;7.07;;;;;;;;;;5075785;28;20024;-21
2023/08/19 03:20:05;;;;;;;6.95;6.55;;;;;;;;;;5075768;28;20035;-20
2023/08/19 03:22:32;;;;;;;6.50;6.10;;;;;;;;;;5075926;28;20029;-25
2023/08/19 03:24:58;;;;;;;7.70;7.20;;;;;;;;;;5075670;28;20020;-22
2023/08/19 03:27:24;;;;;;;6.97;6.47;;;;;;;;;;5075925;28;20093;-22
2023/08/19 03:29:50;;;;;;;6.97;6.50;;;;;;;;;;5075567;28;20032;-24
2023/08/19 03:32:17;;;;;;;7.13;6.60;;;;;;;;;;5075476;28;20028;-22
2023/08/19 03:34:43;;;;;;;7.40;6.90;;;;;;;;;;5075679;28;20166;-23
2023/08/19 03:37:09;;;;;;;6.75;6.25;;;;;;;;;;5075763;28;20031;-24
2023/08/19 03:39:35;;;;;;;7.60;7.00;;;;;;;;;;5057761;28;20351;-23
2023/08/19 03:42:01;;;;;;;7.63;7.10;;;;;;;;;;5075348;28;20333;-21
2023/08/19 03:44:27;;;;;;;7.30;6.80;;;;;;;;;;5075329;28;20021;-21
2023/08/19 03:46:53;;;;;;;7.53;7.03;;;;;;;;;;5075290;28;20117;-22
2023/08/19 03:49:20;;;;;;;7.13;6.63;;;;;;;;;;5075093;28;20035;-25
2023/08/19 03:51:46;;;;;;;7.97;7.53;;;;;;;;;;5074556;28;20110;-26
2023/08/19 03:54:12;;;;;;;7.20;6.70;;;;;;;;;;5075391;28;20024;-31
2023/08/19 03:56:38;;;;;;;7.43;6.80;;;;;;;;;;5075198;28;20017;-22
2023/08/19 03:59:04;;;;;;;7.43;6.93;;;;;;;;;;5075115;28;20444;-21
2023/08/19 04:01:31;;;;;;;7.32;6.72;;;;;;;;;;5075322;28;20116;-22
2023/08/19 04:03:57;;;;;;;6.22;5.82;;;;;;;;;;5030941;28;1260409;-22
2023/08/19 04:06:23;;;;;;;7.25;6.68;;;;;;;;;;5076260;28;20040;-23
2023/08/19 04:08:49;;;;;;;7.55;6.95;;;;;;;;;;5075819;28;20029;-24
2023/08/19 04:11:15;;;;;;;7.00;6.50;;;;;;;;;;5058197;28;20329;-25
2023/08/19 04:13:41;;;;;;;7.07;6.57;;;;;;;;;;5075639;28;20039;-22
2023/08/19 04:16:08;;;;;;;8.15;7.55;;;;;;;;;;5075993;28;20016;-22
2023/08/19 04:18:35;;;;;;;6.75;6.35;;;;;;;;;;5075942;28;20094;-22
2023/08/19 04:21:04;;;;;;;6.90;6.40;;;;;;;;;;5075645;28;20024;-22
2023/08/19 04:23:30;;;;;;;6.60;6.20;;;;;;;;;;5075424;28;20024;-22
2023/08/19 04:25:57;;;;;;;6.18;5.78;;;;;;;;;;5075787;28;20027;-25
2023/08/19 04:28:23;;;;;;;6.55;6.15;;;;;;;;;;5075387;28;20024;-24
2023/08/19 04:30:49;;;;;;;6.65;6.25;;;;;;;;;;5075467;28;20027;-22
2023/08/19 04:33:15;;;;;;;7.07;6.68;;;;;;;;;;5075514;28;20032;-23
2023/08/19 04:35:42;;;;;;;7.30;6.47;;;;;;;;;;5076126;28;20028;-20
2023/08/19 04:38:08;;;;;;;6.72;6.32;;;;;;;;;;5075584;28;20449;-21
2023/08/19 04:40:34;;;;;;;7.80;7.20;;;;;;;;;;5075265;28;20096;-23
2023/08/19 04:43:01;;;;;;;7.03;6.53;;;;;;;;;;5075398;28;20035;-23
2023/08/19 04:45:27;;;;;;;6.65;6.22;;;;;;;;;;5075474;28;20355;-24
2023/08/19 04:47:53;;;;;;;6.57;6.18;;;;;;;;;;5075141;28;20167;-22
2023/08/19 04:50:21;;;;;;;7.32;6.82;;;;;;;;;;5057695;28;20020;-22
2023/08/19 04:52:47;;;;;;;16.45;7.00;;;;;;;;;;5075388;28;20044;-25
2023/08/19 04:55:14;;;;;;;7.13;6.65;;;;;;;;;;5075200;28;20117;-25
2023/08/19 04:57:42;;;;;;;7.35;6.88;;;;;;;;;;5075201;28;20159;-25
2023/08/19 05:00:12;;;;;;;7.13;6.68;;;;;;;;;;5075210;28;20020;-22
2023/08/19 05:02:38;;;;;;;7.30;6.80;;;;;;;;;;5075022;28;20103;-25
2023/08/19 05:05:05;;;;;;;7.32;6.82;;;;;;;;;;5074767;28;20048;-24
2023/08/19 05:07:31;;;;;;;7.18;6.47;;;;;;;;;;5074832;28;20086;-23
2023/08/19 05:09:57;;;;;;;7.03;6.53;;;;;;;;;;5075095;28;20021;-24
2023/08/19 05:12:23;;;;;;;6.63;6.22;;;;;;;;;;5075104;28;20033;-26
2023/08/19 05:14:50;;;;;;;7.20;6.70;;;;;;;;;;5074686;28;20020;-23
2023/08/19 05:17:16;;;;;;;6.95;6.50;;;;;;;;;;5074998;28;20017;-22
2023/08/19 05:19:42;;;;;;;7.13;6.63;;;;;;;;;;5074713;28;20020;-24
2023/08/19 05:22:08;;;;;;;7.03;6.43;;;;;;;;;;5074866;28;20448;-23
2023/08/19 05:24:34;;;;;;;6.57;6.18;;;;;;;;;;5074637;28;20103;-25
2023/08/19 05:27:00;;;;;;;6.60;6.20;;;;;;;;;;5074618;28;20025;-25
2023/08/19 05:29:27;;;;;;;6.82;6.43;;;;;;;;;;5056903;28;20340;-28
2023/08/19 05:31:53;;;;;;;7.55;7.05;;;;;;;;;;5074490;28;20032;-23
2023/08/19 05:34:19;;;;;;;7.22;6.72;;;;;;;;;;5074476;28;20035;-22
2023/08/19 05:36:45;;;;;;;7.60;7.00;;;;;;;;;;5074792;28;20439;-20
2023/08/19 05:39:11;;;;;;;7.13;6.72;;;;;;;;;;5074534;28;20028;-24
2023/08/19 05:41:37;;;;;;;6.68;6.28;;;;;;;;;;5074399;28;20020;-24
2023/08/19 05:44:04;;;;;;;6.38;6.03;;;;;;;;;;5074371;28;20081;-23
2023/08/19 05:46:30;;;;;;;6.68;6.20;;;;;;;;;;5057103;28;20359;-23
2023/08/19 05:48:57;;;;;;;6.75;6.25;;;;;;;;;;5074643;28;20336;-23
2023/08/19 05:51:23;;;;;;;7.40;6.93;;;;;;;;;;5074394;28;20482;-22
2023/08/19 05:53:49;;;;;;;6.55;6.15;;;;;;;;;;5074213;28;20036;-26
2023/08/19 05:56:15;;;;;;;6.90;6.50;;;;;;;;;;5074337;28;20337;-21
2023/08/19 05:58:41;;;;;;;6.65;6.25;;;;;;;;;;5074318;28;20031;-24
2023/08/19 06:01:07;;;;;;;6.15;5.75;;;;;;;;;;5074585;28;20451;-21
2023/08/19 06:03:34;;;;;;;7.38;6.88;;;;;;;;;;5074037;28;20021;-26
2023/08/19 06:06:06;;;;;;;6.53;6.05;;;;;;;;;;5074263;28;20471;-23
2023/08/19 06:08:33;;;;;;;7.10;6.63;;;;;;;;;;5056820;28;20033;-22
2023/08/19 06:11:02;;;;;;;6.53;6.13;;;;;;;;;;5074182;28;20111;-25
2023/08/19 06:13:28;;;;;;;7.07;6.57;;;;;;;;;;5075912;28;20320;-23
2023/08/19 06:15:54;;;;;;;6.95;6.50;;;;;;;;;;5078045;28;20470;-20
2023/08/19 06:18:21;;;;;;;5.72;5.32;;;;;;;;;;5078222;28;20036;-21
2023/08/19 06:20:48;;;;;;;7.32;6.82;;;;;;;;;;5077934;28;20029;-22
2023/08/19 06:23:15;;;;;;;6.85;6.38;;;;;;;;;;5078041;28;20031;-20
2023/08/19 06:25:41;;;;;;;6.50;6.10;;;;;;;;;;5077834;28;20103;-19
2023/08/19 06:28:07;;;;;;;7.18;6.75;;;;;;;;;;5077792;28;20029;-24
2023/08/19 06:30:33;;;;;;;6.40;6.00;;;;;;;;;;5077745;28;20032;-25
2023/08/19 06:32:59;;;;;;;6.65;6.18;;;;;;;;;;5077940;28;20034;-25
2023/08/19 06:35:26;;;;;;;6.50;6.10;;;;;;;;;;5077624;28;20116;-23
2023/08/19 06:37:53;;;;;;;6.20;5.80;;;;;;;;;;5077891;28;20077;-24
2023/08/19 06:40:21;;;;;;;6.97;6.47;;;;;;;;;;5077843;28;20044;-23
2023/08/19 06:42:49;;;;;;;7.25;6.75;;;;;;;;;;5077705;28;20131;-25
2023/08/19 06:45:16;;;;;;;6.57;6.00;;;;;;;;;;5077720;28;20395;-26
2023/08/19 06:47:43;;;;;;;6.13;5.72;;;;;;;;;;5060098;28;20051;-21
2023/08/19 06:50:10;;;;;;;6.82;6.43;;;;;;;;;;5077432;28;20052;-21
2023/08/19 06:52:36;;;;;;;6.05;5.57;;;;;;;;;;5077833;28;20440;-23
2023/08/19 06:55:03;;;;;;;6.18;5.68;;;;;;;;;;5077236;28;20085;-20
2023/08/19 06:57:39;;;;;;;6.47;5.97;;;;;;;;;;5077305;28;20351;-22
2023/08/19 07:00:09;;;;;;;6.43;5.93;;;;;;;;;;5077542;28;20021;-23
2023/08/19 07:02:36;;;;;;;6.05;5.65;;;;;;;;;;5077699;28;20052;-21
2023/08/19 07:05:03;;;;;;;6.22;5.82;;;;;;;;;;5076956;28;20379;-23
2023/08/19 07:07:30;;;;;;;6.10;5.70;;;;;;;;;;5077350;28;20060;-23
2023/08/19 07:09:56;;;;;;;6.82;6.28;;;;;;;;;;5077326;28;20109;-23
2023/08/19 07:12:23;;;;;;;6.20;5.80;;;;;;;;;;5076927;28;20024;-24
2023/08/19 07:14:49;;;;;;;6.45;6.05;;;;;;;;;;5059542;28;20102;-23
2023/08/19 07:17:17;;;;;;;6.40;6.00;;;;;;;;;;5077214;28;20024;-22
2023/08/19 07:19:43;;;;;;;6.70;6.20;;;;;;;;;;5076869;28;20039;-22
2023/08/19 07:22:10;;;;;;;6.65;6.20;;;;;;;;;;5076780;28;20029;-22
2023/08/19 07:24:36;;;;;;;6.43;6.03;;;;;;;;;;5075911;28;20104;-24
2023/08/19 07:27:04;;;;;;;6.20;5.70;;;;;;;;;;5076211;28;20056;-28
2023/08/19 07:29:30;;;;;;;6.35;5.85;;;;;;;;;;5076943;28;20042;-24
2023/08/19 07:31:57;;;;;;;6.28;5.88;;;;;;;;;;5076560;28;20032;-23
2023/08/19 07:34:23;;;;;;;7.00;6.53;;;;;;;;;;5076521;28;20112;-26
2023/08/19 07:36:50;;;;;;;6.55;6.05;;;;;;;;;;5076792;28;20048;-22
2023/08/19 07:39:16;;;;;;;6.15;5.75;;;;;;;;;;5076798;28;20028;-21
2023/08/19 07:41:42;;;;;;;6.68;6.28;;;;;;;;;;5076462;28;20021;-20
2023/08/19 07:44:08;;;;;;;6.53;6.07;;;;;;;;;;5058714;28;20024;-19
2023/08/19 07:46:35;;;;;;;6.85;6.32;;;;;;;;;;5076756;28;20024;-24
2023/08/19 07:49:01;;;;;;;5.70;5.40;;;;;;;;;;5076240;28;20046;-22
2023/08/19 07:51:27;;;;;;;6.85;6.45;;;;;;;;;;5076552;28;20095;-23
2023/08/19 07:53:53;;;;;;;5.60;5.30;;;;;;;;;;5076068;28;20025;-26
2023/08/19 07:56:19;;;;;;;6.28;5.88;;;;;;;;;;5076436;28;20021;-24
2023/08/19 07:58:46;;;;;;;6.75;6.35;;;;;;;;;;5076388;28;20391;-23
2023/08/19 08:01:12;;;;;;;6.28;5.88;;;;;;;;;;5076064;28;20031;-23
2023/08/19 08:03:38;;;;;;;6.28;5.88;;;;;;;;;;5075712;28;20021;-21
2023/08/19 08:06:05;;;;;;;6.65;6.25;;;;;;;;;;5076295;28;20099;-22
2023/08/19 08:08:31;;;;;;;5.80;5.40;;;;;;;;;;5075852;28;20024;-23
2023/08/19 08:10:57;;;;;;;5.90;5.50;;;;;;;;;;5076141;28;20024;-21
2023/08/19 08:13:23;;;;;;;5.78;5.38;;;;;;;;;;5075744;28;20024;-25
2023/08/19 08:15:49;;;;;;;5.93;5.53;;;;;;;;;;5076021;28;20025;-23
2023/08/19 08:18:15;;;;;;;6.60;6.20;;;;;;;;;;5075742;28;20020;-22
2023/08/19 08:20:41;;;;;;;6.00;5.60;;;;;;;;;;5075634;28;20055;-26
2023/08/19 08:23:07;;;;;;;6.15;5.75;;;;;;;;;;5057934;28;20032;-22
2023/08/19 08:25:34;;;;;;;5.50;5.13;;;;;;;;;;5075567;28;20024;-22
2023/08/19 08:28:00;;;;;;;5.88;5.57;;;;;;;;;;5075540;28;20020;-20
2023/08/19 08:30:26;;;;;;;6.18;5.78;;;;;;;;;;5075779;28;20024;-20
2023/08/19 08:32:52;;;;;;;5.97;5.65;;;;;;;;;;5057776;28;20520;-22
2023/08/19 08:35:18;;;;;;;6.78;6.30;;;;;;;;;;5075337;28;20406;-24
2023/08/19 08:37:44;;;;;;;6.68;6.28;;;;;;;;;;5057782;28;20088;-22
2023/08/19 08:40:11;;;;;;;6.05;5.65;;;;;;;;;;5075331;28;20095;-23
2023/08/19 08:42:37;;;;;;;5.97;5.57;;;;;;;;;;5075213;28;20386;-24
2023/08/19 08:45:03;;;;;;;6.25;5.85;;;;;;;;;;5075185;28;20024;-21
2023/08/19 08:47:29;;;;;;;5.70;5.40;;;;;;;;;;5057625;28;20028;-24
2023/08/19 08:49:56;;;;;;;5.97;5.47;;;;;;;;;;5075169;28;20359;-22
2023/08/19 08:52:22;;;;;;;6.20;5.68;;;;;;;;;;5075087;28;20364;-21
2023/08/19 08:54:53;;;;;;;5.80;5.40;;;;;;;;;;5074927;28;20486;-21
2023/08/19 08:57:20;;;;;;;5.80;5.40;;;;;;;;;;5075100;28;20147;-22
2023/08/19 08:59:46;;;;;;;7.20;6.72;;;;;;;;;;5074965;28;20443;-22
2023/08/19 09:02:13;;;;;;;6.55;6.15;;;;;;;;;;5075111;28;20017;-21
2023/08/19 09:04:40;;;;;;;5.82;5.43;;;;;;;;;;5074830;28;20056;-23
2023/08/19 09:07:10;;;;;;;6.18;5.68;;;;;;;;;;5074866;28;20399;-23
2023/08/19 09:09:37;;;;;;;6.35;5.95;;;;;;;;;;5074936;28;20078;-21
2023/08/19 09:12:05;;;;;;;6.45;6.05;;;;;;;;;;5057145;28;20115;-21
2023/08/19 09:14:34;;;;;;;5.72;5.32;;;;;;;;;;5074698;28;20035;-25
2023/08/19 09:17:00;;;;;;;5.82;5.43;;;;;;;;;;5074763;28;20021;-21
2023/08/19 09:19:26;;;;;;;6.00;5.60;;;;;;;;;;5075001;28;20025;-24
2023/08/19 09:21:52;;;;;;;6.60;6.10;;;;;;;;;;5074617;28;20020;-23
2023/08/19 09:24:18;;;;;;;6.57;6.18;;;;;;;;;;5074726;28;20028;-24
2023/08/19 09:26:45;;;;;;;5.93;5.60;;;;;;;;;;5075144;28;20348;-24
2023/08/19 09:29:12;;;;;;;7.07;6.57;;;;;;;;;;5056993;28;20421;-25
2023/08/19 09:31:39;;;;;;;6.20;5.80;;;;;;;;;;5056966;28;20360;-25
2023/08/19 09:34:05;;;;;;;6.07;5.68;;;;;;;;;;5074706;28;20479;-22
2023/08/19 09:36:31;;;;;;;6.38;5.97;;;;;;;;;;5074460;28;20016;-25
2023/08/19 09:38:58;;;;;;;6.15;5.65;;;;;;;;;;5074552;28;20024;-22
2023/08/19 09:41:28;;;;;;;5.63;5.32;;;;;;;;;;5074484;28;20463;-23
2023/08/19 09:43:55;;;;;;;6.87;6.37;;;;;;;;;;5056932;28;20024;-23
2023/08/19 09:46:21;;;;;;;6.05;5.60;;;;;;;;;;5074519;28;20036;-21
2023/08/19 09:48:53;;;;;;;5.75;5.35;;;;;;;;;;5075815;28;20040;-24
2023/08/19 09:51:26;;;;;;;6.03;5.70;;;;;;;;;;5078525;28;20497;-25
2023/08/19 09:53:53;;;;;;;5.90;5.50;;;;;;;;;;5078412;28;20033;-21
2023/08/19 09:56:23;;;;;;;5.90;5.53;;;;;;;;;;5078799;28;20345;-21
2023/08/19 09:58:56;;;;;;;5.57;5.18;;;;;;;;;;5078666;28;20033;-24
2023/08/19 10:01:25;;;;;;;5.53;5.22;;;;;;;;;;5060749;28;20475;-21
2023/08/19 10:03:51;;;;;;;5.40;5.00;;;;;;;;;;5078090;28;20361;-21
2023/08/19 10:06:21;;;;;;;5.35;5.05;;;;;;;;;;5078331;28;20029;-23
2023/08/19 10:08:49;;;;;;;5.82;5.43;;;;;;;;;;5078483;28;20028;-23
2023/08/19 10:11:16;;;;;;;6.15;5.75;;;;;;;;;;5078454;28;20097;-21
2023/08/19 10:13:45;;;;;;;5.80;5.40;;;;;;;;;;5078238;28;20032;-20
2023/08/19 10:16:16;;;;;;;5.72;5.43;;;;;;;;;;5078081;28;20055;-25
2023/08/19 10:18:44;;;;;;;6.43;6.03;;;;;;;;;;5078362;28;20356;-20
2023/08/19 10:21:13;;;;;;;5.45;5.15;;;;;;;;;;5078019;28;20343;-27
2023/08/19 10:23:39;;;;;;;6.20;5.80;;;;;;;;;;5077862;28;20348;-20
2023/08/19 10:26:06;;;;;;;5.40;5.10;;;;;;;;;;5078199;28;20031;-21
2023/08/19 10:28:33;;;;;;;5.68;5.30;;;;;;;;;;5077835;28;20028;-20
2023/08/19 10:31:06;;;;;;;6.20;5.80;;;;;;;;;;5077751;28;20025;-19
2023/08/19 10:33:43;;;;;;;6.40;6.00;;;;;;;;;;5077559;28;20031;-30
2023/08/19 10:36:11;;;;;;;6.18;5.78;;;;;;;;;;5077689;28;20390;-23
2023/08/19 10:38:41;;;;;;;5.68;5.32;;;;;;;;;;5077911;28;20021;-32
2023/08/19 10:41:16;;;;;;;6.45;6.05;;;;;;;;;;5077867;28;20029;-20
2023/08/19 10:43:54;;;;;;;6.40;5.95;;;;;;;;;;5077575;28;20048;-25
2023/08/19 10:46:25;;;;;;;6.28;5.88;;;;;;;;;;5077807;28;20031;-19
2023/08/19 10:48:51;;;;;;;6.40;6.00;;;;;;;;;;5077444;28;20024;-21
2023/08/19 10:51:18;;;;;;;6.20;5.90;;;;;;;;;;5077458;28;20013;-24
2023/08/19 10:53:51;;;;;;;7.15;6.65;;;;;;;;;;5077152;28;20021;-21
2023/08/19 10:56:19;;;;;;;6.75;6.35;;;;;;;;;;5077372;28;20020;-22
2023/08/19 10:58:45;;;;;;;5.68;5.28;;;;;;;;;;5077245;28;20052;-22
2023/08/19 11:01:12;;;;;;;5.97;5.57;;;;;;;;;;5077052;28;20103;-22
2023/08/19 11:03:38;;;;;;;6.72;6.25;;;;;;;;;;5076915;28;20021;-21
2023/08/19 11:06:07;;;;;;;6.43;6.03;;;;;;;;;;5077487;28;20028;-24
2023/08/19 11:08:43;;;;;;;5.97;5.57;;;;;;;;;;5077411;28;20024;-22
2023/08/19 11:11:14;;;;;;;7.07;6.63;;;;;;;;;;5077028;28;20021;-21
2023/08/19 11:13:40;;;;;;;5.68;5.38;;;;;;;;;;5076858;28;20028;-19
2023/08/19 11:16:06;;;;;;;6.85;6.35;;;;;;;;;;5077742;28;20332;-23
2023/08/19 11:18:32;;;;;;;6.53;6.13;;;;;;;;;;5076928;28;20017;-21
2023/08/19 11:20:59;;;;;;;5.72;5.43;;;;;;;;;;5059254;28;20020;-24
2023/08/19 11:23:26;;;;;;;6.10;5.70;;;;;;;;;;5076719;28;20020;-24
2023/08/19 11:25:52;;;;;;;6.18;5.78;;;;;;;;;;5076773;28;20020;-21
2023/08/19 11:28:18;;;;;;;6.20;5.80;;;;;;;;;;5076738;28;20467;-22
2023/08/19 11:30:45;;;;;;;5.90;5.55;;;;;;;;;;5076688;28;20032;-25
2023/08/19 11:33:16;;;;;;;5.72;5.32;;;;;;;;;;5076843;28;20035;-24
2023/08/19 11:35:42;;;;;;;5.80;5.40;;;;;;;;;;5076523;28;20025;-23
2023/08/19 11:38:13;;;;;;;5.63;5.28;;;;;;;;;;5076809;28;20025;-20
2023/08/19 11:40:39;;;;;;;7.10;6.70;;;;;;;;;;5076515;28;20075;-22
2023/08/19 11:43:08;;;;;;;5.78;5.38;;;;;;;;;;5076337;28;20025;-31
2023/08/19 11:45:37;;;;;;;5.85;5.45;;;;;;;;;;5076333;28;20021;-23
2023/08/19 11:48:03;;;;;;;5.93;5.53;;;;;;;;;;5076270;28;20036;-29
2023/08/19 11:50:34;;;;;;;6.00;5.60;;;;;;;;;;5076332;28;20035;-24
2023/08/19 11:53:00;;;;;;;;;;;;;;;;;;5076755;28;20016;-22
2023/08/19 11:55:27;;;;;;;6.07;5.78;;;;;;;;;;5076477;28;19912;-24
2023/08/19 11:57:53;;;;;;;6.25;5.85;;;;;;;;;;5076375;28;20039;-23
2023/08/19 12:00:19;;;;;;;6.10;5.72;;;;;;;;;;5076373;28;20024;-23
2023/08/19 12:02:46;;;;;;;5.88;5.47;;;;;;;;;;5075969;28;20020;-19
2023/08/19 12:05:12;;;;;;;5.55;5.25;;;;;;;;;;5075900;28;20040;-19
2023/08/19 12:07:43;;;;;;;5.88;5.47;;;;;;;;;;5076272;28;20090;-20
2023/08/19 12:10:10;;;;;;;6.13;5.82;;;;;;;;;;5075969;28;20020;-20
2023/08/19 12:12:36;;;;;;;6.15;5.75;;;;;;;;;;5075066;28;20082;-25
2023/08/19 12:15:02;;;;;;;5.80;5.40;;;;;;;;;;5075762;28;20029;-22
2023/08/19 12:17:28;;;;;;;5.78;5.28;;;;;;;;;;5076052;28;20031;-25
2023/08/19 12:19:55;;;;;;;6.20;5.80;;;;;;;;;;5075697;28;20021;-24
2023/08/19 12:22:21;;;;;;;5.63;5.32;;;;;;;;;;5075616;28;20051;-24
2023/08/19 12:24:48;;;;;;;6.32;5.95;;;;;;;;;;5076175;28;20044;-20
2023/08/19 12:27:14;;;;;;;5.80;5.50;;;;;;;;;;5075589;28;20032;-23
2023/08/19 12:29:40;;;;;;;6.13;5.72;;;;;;;;;;5075796;28;20024;-23
2023/08/19 12:32:07;;;;;;;6.43;6.00;;;;;;;;;;5057882;28;20036;-20
2023/08/19 12:34:33;;;;;;;5.70;5.30;;;;;;;;;;5075646;28;20025;-22
2023/08/19 12:36:59;;;;;;;7.28;6.78;;;;;;;;;;5075642;28;20339;-24
2023/08/19 12:39:25;;;;;;;5.85;5.45;;;;;;;;;;5075369;28;20016;-24
2023/08/19 12:41:51;;;;;;;5.63;5.30;;;;;;;;;;5075180;28;20027;-23
2023/08/19 12:44:17;;;;;;;5.38;5.07;;;;;;;;;;5075281;28;20051;-23
2023/08/19 12:46:45;;;;;;;5.97;5.47;;;;;;;;;;5075159;28;20451;-23
2023/08/19 12:49:11;;;;;;;5.80;5.40;;;;;;;;;;5075435;28;20028;-24
2023/08/19 12:51:37;;;;;;;6.15;5.75;;;;;;;;;;5075144;28;20086;-23
2023/08/19 12:54:08;;;;;;;5.68;5.38;;;;;;;;;;5074921;28;20028;-21
2023/08/19 12:56:34;;;;;;;5.47;5.10;;;;;;;;;;5075061;28;20024;-23
2023/08/19 12:59:00;;;;;;;5.90;5.55;;;;;;;;;;5075275;28;20020;-26
2023/08/19 13:01:26;;;;;;;6.55;6.15;;;;;;;;;;5075009;28;20094;-22
2023/08/19 13:03:52;;;;;;;5.45;5.15;;;;;;;;;;5074605;28;20492;-24
2023/08/19 13:06:19;;;;;;;5.95;5.57;;;;;;;;;;5075264;28;20081;-27
2023/08/19 13:08:45;;;;;;;5.80;5.50;;;;;;;;;;5074876;28;20039;-23
2023/08/19 13:11:12;;;;;;;6.72;6.22;;;;;;;;;;5075107;28;20024;-20
2023/08/19 13:13:38;;;;;;;5.43;5.13;;;;;;;;;;5074914;28;20337;-22
2023/08/19 13:16:04;;;;;;;5.78;5.45;;;;;;;;;;5075028;28;20032;-21
2023/08/19 13:18:30;;;;;;;6.00;5.60;;;;;;;;;;5074779;28;20020;-19
2023/08/19 13:20:56;;;;;;;7.10;6.68;;;;;;;;;;5074672;28;20365;-20
2023/08/19 13:23:22;;;;;;;5.97;5.68;;;;;;;;;;5074944;28;20021;-23
2023/08/19 13:25:48;;;;;;;5.80;5.45;;;;;;;;;;5074863;28;20032;-24
2023/08/19 13:28:15;;;;;;;5.95;5.65;;;;;;;;;;5074602;28;20039;-24
2023/08/19 13:30:41;;;;;;;6.75;6.35;;;;;;;;;;5074611;28;20039;-25
2023/08/19 13:33:07;;;;;;;6.70;6.30;;;;;;;;;;5074527;28;20031;-22
2023/08/19 13:35:34;;;;;;;6.22;5.82;;;;;;;;;;5074780;28;20324;-23
2023/08/19 13:38:01;;;;;;;5.68;5.38;;;;;;;;;;5074458;28;20100;-26
2023/08/19 13:40:27;;;;;;;6.65;6.25;;;;;;;;;;5074483;28;20017;-20
2023/08/19 13:42:53;;;;;;;6.55;6.00;;;;;;;;;;5056687;28;20479;-23
2023/08/19 13:45:19;;;;;;;6.53;6.13;;;;;;;;;;5074747;28;20033;-21
2023/08/19 13:47:45;;;;;;;5.40;5.10;;;;;;;;;;5074702;28;20436;-24
2023/08/19 13:50:11;;;;;;;6.07;5.68;;;;;;;;;;5074419;28;20104;-26
2023/08/19 13:52:47;;;;;;;6.10;5.80;;;;;;;;;;5074592;28;20103;-24
2023/08/19 13:55:17;;;;;;;6.45;6.05;;;;;;;;;;5074250;28;20456;-23
2023/08/19 13:57:43;;;;;;;6.30;5.90;;;;;;;;;;5075429;28;20082;-22
2023/08/19 14:00:15;;;;;;;6.80;6.40;;;;;;;;;;5074625;28;20116;-20
2023/08/19 14:02:42;;;;;;;6.20;5.80;;;;;;;;;;5074584;28;20029;-22
2023/08/19 14:05:09;;;;;;;6.63;6.22;;;;;;;;;;5074221;28;20368;-27
2023/08/19 14:07:35;;;;;;;6.32;5.93;;;;;;;;;;5074275;28;20028;-24
2023/08/19 14:10:01;;;;;;;7.05;6.65;;;;;;;;;;5074252;28;20047;-25
2023/08/19 14:12:27;;;;;;;6.38;5.97;;;;;;;;;;5074148;28;20028;-24
2023/08/19 14:14:54;;;;;;;6.80;6.40;;;;;;;;;;5074129;28;20036;-24
2023/08/19 14:17:20;;;;;;;6.35;5.95;;;;;;;;;;5074490;28;20020;-23
2023/08/19 14:19:46;;;;;;;6.75;6.35;;;;;;;;;;5074437;28;20016;-24
2023/08/19 14:22:12;;;;;;;6.95;6.55;;;;;;;;;;5074054;28;20024;-19
2023/08/19 14:24:38;;;;;;;6.72;6.32;;;;;;;;;;5056447;28;20036;-21
2023/08/19 14:27:04;;;;;;;6.25;5.85;;;;;;;;;;5074366;28;20115;-24
2023/08/19 14:29:30;;;;;;;6.28;5.90;;;;;;;;;;5074058;28;20064;-25
2023/08/19 14:31:56;;;;;;;5.88;5.57;;;;;;;;;;5074228;28;20021;-26
2023/08/19 14:34:23;;;;;;;6.95;6.50;;;;;;;;;;5074614;28;20032;-23
2023/08/19 14:36:49;;;;;;;7.75;7.25;;;;;;;;;;5077706;28;20020;-24
2023/08/19 14:39:15;;;;;;;6.75;6.35;;;;;;;;;;5060042;28;20020;-27
2023/08/19 14:41:41;;;;;;;7.05;6.55;;;;;;;;;;5077643;28;20031;-19